Time,TemperatureF,DewpointF,PressureIn,WindDirection,WindDirectionDegrees,WindSpeedMPH,WindSpeedGustMPH,Humidity,HourlyPrecipIn,Conditions,Clouds,dailyrainin,SolarRadiationWatts/m^2,SoftwareType,DateUTC
2013-02-11 00:01:00,58.0,52.0,-100.00,North,11,20.0,26.0,79,0.00,,,0.00,0.000000,,2013-02-11 10:01:00,
2013-02-11 00:32:00,58.0,52.0,-100.00,North,11,20.0,26.0,79,0.00,,,0.00,0.000000,,2013-02-11 10:32:00,
2013-02-11 00:42:00,58.0,52.0,-100.00,North,11,20.0,26.0,79,0.00,,,0.00,0.000000,,2013-02-11 10:42:00,
2013-02-11 00:52:00,58.0,52.0,-100.00,North,11,20.0,26.0,79,0.00,,,0.00,0.000000,,2013-02-11 10:52:00,
2013-02-11 01:01:00,58.0,50.0,-100.00,North,1,14.0,27.0,76,0.00,,,0.00,0.000000,,2013-02-11 11:01:00,
2013-02-11 01:32:00,58.0,50.0,-100.00,North,1,14.0,27.0,76,0.00,,,0.00,0.000000,,2013-02-11 11:32:00,
2013-02-11 01:42:00,58.0,50.0,-100.00,North,1,14.0,27.0,76,0.00,,,0.00,0.000000,,2013-02-11 11:42:00,
2013-02-11 01:52:00,58.0,50.0,-100.00,North,1,14.0,27.0,76,0.00,,,0.00,0.000000,,2013-02-11 11:52:00,
2013-02-11 02:01:00,59.0,51.0,-100.00,North,7,16.0,24.0,75,0.00,,,-99.99,0.000000,,2013-02-11 12:01:00,
2013-02-11 02:32:00,59.0,51.0,-100.00,North,7,16.0,24.0,75,0.00,,,-99.99,0.000000,,2013-02-11 12:32:00,
2013-02-11 02:42:00,59.0,51.0,-100.00,North,7,16.0,24.0,75,0.00,,,-99.99,0.000000,,2013-02-11 12:42:00,
2013-02-11 02:52:00,59.0,51.0,-100.00,North,7,16.0,24.0,75,0.00,,,-99.99,0.000000,,2013-02-11 12:52:00,
2013-02-11 03:01:00,58.0,50.0,-100.00,North,7,16.0,25.0,76,0.00,,,-99.99,0.000000,,2013-02-11 13:01:00,
2013-02-11 03:33:00,58.0,50.0,-100.00,North,7,16.0,25.0,76,0.00,,,-99.99,0.000000,,2013-02-11 13:33:00,
2013-02-11 03:42:00,58.0,50.0,-100.00,North,7,16.0,25.0,76,0.00,,,-99.99,0.000000,,2013-02-11 13:42:00,
2013-02-11 03:52:00,58.0,50.0,-100.00,North,7,16.0,25.0,76,0.00,,,-99.99,0.000000,,2013-02-11 13:52:00,
2013-02-11 04:01:00,58.0,50.0,-100.00,North,4,13.0,25.0,75,0.00,,,-99.99,0.000000,,2013-02-11 14:01:00,
2013-02-11 04:33:00,58.0,50.0,-100.00,North,4,13.0,25.0,75,0.00,,,-99.99,0.000000,,2013-02-11 14:33:00,
2013-02-11 04:42:00,58.0,50.0,-100.00,North,4,13.0,25.0,75,0.00,,,-99.99,0.000000,,2013-02-11 14:42:00,
2013-02-11 04:52:00,58.0,50.0,-100.00,North,4,13.0,25.0,75,0.00,,,-99.99,0.000000,,2013-02-11 14:52:00,
2013-02-11 05:01:00,59.0,48.0,-100.00,North,8,15.0,21.0,68,0.00,,,0.00,0.000000,,2013-02-11 15:01:00,
2013-02-11 05:32:00,59.0,48.0,-100.00,North,8,15.0,21.0,68,0.00,,,0.00,0.000000,,2013-02-11 15:32:00,
2013-02-11 05:42:00,59.0,48.0,-100.00,North,8,15.0,21.0,68,0.00,,,0.00,0.000000,,2013-02-11 15:42:00,
2013-02-11 05:52:00,59.0,48.0,-100.00,North,8,15.0,21.0,68,0.00,,,0.00,0.000000,,2013-02-11 15:52:00,
2013-02-11 06:01:00,59.0,49.0,-100.00,North,2,14.0,21.0,69,0.00,,,0.00,0.000000,,2013-02-11 16:01:00,
2013-02-11 06:32:00,59.0,49.0,-100.00,North,2,14.0,21.0,69,0.00,,,0.00,0.000000,,2013-02-11 16:32:00,
2013-02-11 06:42:00,59.0,49.0,-100.00,North,2,14.0,21.0,69,0.00,,,0.00,0.000000,,2013-02-11 16:42:00,
2013-02-11 06:52:00,59.0,49.0,-100.00,North,2,14.0,21.0,69,0.00,,,0.00,0.000000,,2013-02-11 16:52:00,
2013-02-11 07:01:00,59.0,50.0,-100.00,NNE,15,16.0,23.0,71,0.00,,,0.00,1.000000,,2013-02-11 17:01:00,
2013-02-11 07:32:00,59.0,50.0,-100.00,NNE,15,16.0,23.0,71,0.00,,,0.00,1.000000,,2013-02-11 17:32:00,
2013-02-11 07:42:00,59.0,50.0,-100.00,NNE,15,16.0,23.0,71,0.00,,,0.00,1.000000,,2013-02-11 17:42:00,
2013-02-11 07:52:00,59.0,50.0,-100.00,NNE,15,16.0,23.0,71,0.00,,,0.00,1.000000,,2013-02-11 17:52:00,
2013-02-11 08:01:00,63.0,49.0,-100.00,North,9,13.0,26.0,61,0.00,,,0.00,103.000000,,2013-02-11 18:01:00,
2013-02-11 08:22:00,63.0,49.0,-100.00,North,9,13.0,26.0,61,0.00,,,0.00,103.000000,,2013-02-11 18:22:00,
2013-02-11 08:32:00,63.0,49.0,-100.00,North,9,13.0,26.0,61,0.00,,,0.00,103.000000,,2013-02-11 18:32:00,
2013-02-11 08:42:00,63.0,49.0,-100.00,North,9,13.0,26.0,61,0.00,,,0.00,103.000000,,2013-02-11 18:42:00,
2013-02-11 08:53:00,63.0,49.0,-100.00,North,9,13.0,26.0,61,0.00,,,0.00,103.000000,,2013-02-11 18:53:00,
2013-02-11 09:01:00,69.0,48.0,-100.00,NNE,13,12.0,20.0,47,0.00,,,0.00,332.000000,,2013-02-11 19:01:00,
2013-02-11 09:22:00,69.0,48.0,-100.00,NNE,13,12.0,20.0,47,0.00,,,0.00,332.000000,,2013-02-11 19:22:00,
2013-02-11 09:32:00,69.0,48.0,-100.00,NNE,13,12.0,20.0,47,0.00,,,0.00,332.000000,,2013-02-11 19:32:00,
2013-02-11 09:42:00,69.0,48.0,-100.00,NNE,13,12.0,20.0,47,0.00,,,0.00,332.000000,,2013-02-11 19:42:00,
2013-02-11 09:51:00,69.0,48.0,-100.00,NNE,13,12.0,20.0,47,0.00,,,0.00,332.000000,,2013-02-11 19:51:00,
2013-02-11 10:01:00,72.0,38.0,-100.00,North,8,20.0,30.0,29,0.00,,,0.00,555.000000,,2013-02-11 20:01:00,
2013-02-11 10:32:00,72.0,38.0,-100.00,North,8,20.0,30.0,29,0.00,,,0.00,555.000000,,2013-02-11 20:32:00,
2013-02-11 10:42:00,72.0,38.0,-100.00,North,8,20.0,30.0,29,0.00,,,0.00,555.000000,,2013-02-11 20:42:00,
2013-02-11 10:52:00,72.0,38.0,-100.00,North,8,20.0,30.0,29,0.00,,,0.00,555.000000,,2013-02-11 20:52:00,
2013-02-11 11:01:00,74.0,39.0,-100.00,NNE,20,18.0,30.0,28,0.00,,,0.00,738.000000,,2013-02-11 21:01:00,
2013-02-11 11:32:00,74.0,39.0,-100.00,NNE,20,18.0,30.0,28,0.00,,,0.00,738.000000,,2013-02-11 21:32:00,
2013-02-11 11:42:00,74.0,39.0,-100.00,NNE,20,18.0,30.0,28,0.00,,,0.00,738.000000,,2013-02-11 21:42:00,
2013-02-11 11:52:00,74.0,39.0,-100.00,NNE,20,18.0,30.0,28,0.00,,,0.00,738.000000,,2013-02-11 21:52:00,
2013-02-11 12:01:00,75.0,45.0,-100.00,NNE,26,17.0,30.0,34,0.00,,,0.00,856.000000,,2013-02-11 22:01:00,
2013-02-11 12:32:00,75.0,45.0,-100.00,NNE,26,17.0,30.0,34,0.00,,,0.00,856.000000,,2013-02-11 22:32:00,
2013-02-11 12:42:00,75.0,45.0,-100.00,NNE,26,17.0,30.0,34,0.00,,,0.00,856.000000,,2013-02-11 22:42:00,
2013-02-11 12:52:00,75.0,45.0,-100.00,NNE,26,17.0,30.0,34,0.00,,,0.00,856.000000,,2013-02-11 22:52:00,
2013-02-11 13:01:00,75.0,46.0,-100.00,NE,36,18.0,26.0,36,0.00,,,0.00,896.000000,,2013-02-11 23:01:00,
2013-02-11 13:22:00,75.0,46.0,-100.00,NE,36,18.0,26.0,36,0.00,,,0.00,896.000000,,2013-02-11 23:22:00,
2013-02-11 13:32:00,75.0,46.0,-100.00,NE,36,18.0,26.0,36,0.00,,,0.00,896.000000,,2013-02-11 23:32:00,
2013-02-11 13:42:00,75.0,46.0,-100.00,NE,36,18.0,26.0,36,0.00,,,0.00,896.000000,,2013-02-11 23:42:00,
2013-02-11 13:52:00,75.0,46.0,-100.00,NE,36,18.0,26.0,36,0.00,,,0.00,896.000000,,2013-02-11 23:52:00,
2013-02-11 14:01:00,73.0,47.0,-100.00,NNE,16,23.0,33.0,40,0.00,,,0.00,880.000000,,2013-02-12 00:01:00,
2013-02-11 14:32:00,73.0,47.0,-100.00,NNE,16,23.0,33.0,40,0.00,,,0.00,880.000000,,2013-02-12 00:32:00,
2013-02-11 14:42:00,73.0,47.0,-100.00,NNE,16,23.0,33.0,40,0.00,,,0.00,880.000000,,2013-02-12 00:42:00,
2013-02-11 14:52:00,73.0,47.0,-100.00,NNE,16,23.0,33.0,40,0.00,,,0.00,880.000000,,2013-02-12 00:52:00,
2013-02-11 15:01:00,72.0,49.0,-100.00,NNE,20,21.0,30.0,44,0.00,,,0.00,785.000000,,2013-02-12 01:01:00,
2013-02-11 15:32:00,72.0,49.0,-100.00,NNE,20,21.0,30.0,44,0.00,,,0.00,785.000000,,2013-02-12 01:32:00,
2013-02-11 15:42:00,72.0,49.0,-100.00,NNE,20,21.0,30.0,44,0.00,,,0.00,785.000000,,2013-02-12 01:42:00,
2013-02-11 15:52:00,72.0,49.0,-100.00,NNE,20,21.0,30.0,44,0.00,,,0.00,785.000000,,2013-02-12 01:52:00,
2013-02-11 16:01:00,71.0,50.0,-100.00,NNE,17,21.0,30.0,47,0.00,,,0.00,615.000000,,2013-02-12 02:01:00,
2013-02-11 16:22:00,71.0,50.0,-100.00,NNE,17,21.0,30.0,47,0.00,,,0.00,615.000000,,2013-02-12 02:22:00,
2013-02-11 16:32:00,71.0,50.0,-100.00,NNE,17,21.0,30.0,47,0.00,,,0.00,615.000000,,2013-02-12 02:32:00,
2013-02-11 16:42:00,71.0,50.0,-100.00,NNE,17,21.0,30.0,47,0.00,,,0.00,615.000000,,2013-02-12 02:42:00,
2013-02-11 16:52:00,71.0,50.0,-100.00,NNE,17,21.0,30.0,47,0.00,,,0.00,615.000000,,2013-02-12 02:52:00,
2013-02-11 17:01:00,67.0,51.0,-100.00,North,7,16.0,29.0,56,0.00,,,0.00,377.000000,,2013-02-12 03:01:00,
2013-02-11 17:32:00,67.0,51.0,-100.00,North,7,16.0,29.0,56,0.00,,,0.00,377.000000,,2013-02-12 03:32:00,
2013-02-11 17:42:00,67.0,51.0,-100.00,North,7,16.0,29.0,56,0.00,,,0.00,377.000000,,2013-02-12 03:42:00,
2013-02-11 17:52:00,67.0,51.0,-100.00,North,7,16.0,29.0,56,0.00,,,0.00,377.000000,,2013-02-12 03:52:00,
2013-02-11 18:01:00,64.0,52.0,-100.00,NNE,18,21.0,30.0,64,0.00,,,0.00,112.000000,,2013-02-12 04:01:00,
2013-02-11 18:21:00,64.0,52.0,-100.00,NNE,18,21.0,30.0,64,0.00,,,0.00,112.000000,,2013-02-12 04:21:00,
2013-02-11 18:32:00,64.0,52.0,-100.00,NNE,18,21.0,30.0,64,0.00,,,0.00,112.000000,,2013-02-12 04:32:00,
2013-02-11 18:42:00,64.0,52.0,-100.00,NNE,18,21.0,30.0,64,0.00,,,0.00,112.000000,,2013-02-12 04:42:00,
2013-02-11 18:52:00,64.0,52.0,-100.00,NNE,18,21.0,30.0,64,0.00,,,0.00,112.000000,,2013-02-12 04:52:00,
2013-02-11 19:01:00,61.0,54.0,-100.00,North,359,17.0,29.0,78,0.00,,,0.00,5.000000,,2013-02-12 05:01:00,
2013-02-11 19:32:00,61.0,54.0,-100.00,North,359,17.0,29.0,78,0.00,,,0.00,5.000000,,2013-02-12 05:32:00,
2013-02-11 19:42:00,61.0,54.0,-100.00,North,359,17.0,29.0,78,0.00,,,0.00,5.000000,,2013-02-12 05:42:00,
2013-02-11 19:52:00,61.0,54.0,-100.00,North,359,17.0,29.0,78,0.00,,,0.00,5.000000,,2013-02-12 05:52:00,
2013-02-11 20:01:00,61.0,54.0,-100.00,North,357,18.0,30.0,77,0.00,,,0.00,0.000000,,2013-02-12 06:01:00,
2013-02-11 20:32:00,61.0,54.0,-100.00,North,357,18.0,30.0,77,0.00,,,0.00,0.000000,,2013-02-12 06:32:00,
2013-02-11 20:42:00,61.0,54.0,-100.00,North,357,18.0,30.0,77,0.00,,,0.00,0.000000,,2013-02-12 06:42:00,
2013-02-11 20:52:00,61.0,54.0,-100.00,North,357,18.0,30.0,77,0.00,,,0.00,0.000000,,2013-02-12 06:52:00,
2013-02-11 21:01:00,62.0,54.0,-100.00,North,7,15.0,28.0,74,0.00,,,-99.99,0.000000,,2013-02-12 07:01:00,
2013-02-11 21:32:00,62.0,54.0,-100.00,North,7,15.0,28.0,74,0.00,,,-99.99,0.000000,,2013-02-12 07:32:00,
2013-02-11 21:42:00,62.0,54.0,-100.00,North,7,15.0,28.0,74,0.00,,,-99.99,0.000000,,2013-02-12 07:42:00,
2013-02-11 21:52:00,62.0,54.0,-100.00,North,7,15.0,28.0,74,0.00,,,-99.99,0.000000,,2013-02-12 07:52:00,
2013-02-11 22:01:00,60.0,54.0,-100.00,North,358,14.0,24.0,80,0.00,,,0.00,0.000000,,2013-02-12 08:01:00,
2013-02-11 22:32:00,60.0,54.0,-100.00,North,358,14.0,24.0,80,0.00,,,0.00,0.000000,,2013-02-12 08:32:00,
2013-02-11 22:42:00,60.0,54.0,-100.00,North,358,14.0,24.0,80,0.00,,,0.00,0.000000,,2013-02-12 08:42:00,
2013-02-11 22:52:00,60.0,54.0,-100.00,North,358,14.0,24.0,80,0.00,,,0.00,0.000000,,2013-02-12 08:52:00,
2013-02-11 23:01:00,59.0,53.0,-100.00,North,352,16.0,28.0,80,0.00,,,0.00,0.000000,,2013-02-12 09:01:00,
2013-02-11 23:32:00,59.0,53.0,-100.00,North,352,16.0,28.0,80,0.00,,,0.00,0.000000,,2013-02-12 09:32:00,
2013-02-11 23:42:00,59.0,53.0,-100.00,North,352,16.0,28.0,80,0.00,,,0.00,0.000000,,2013-02-12 09:42:00,
2013-02-11 23:52:00,59.0,53.0,-100.00,North,352,16.0,28.0,80,0.00,,,0.00,0.000000,,2013-02-12 09:52:00,